sensor_id;sensor_type;location;lat;lon;timestamp;pressure;altitude;pressure_sealevel;temperature;humidity
49843;BME280;55559;48.898;9.184;2023-01-31T00:01:11;99309.91;;;2.62;100.00
49843;BME280;55559;48.898;9.184;2023-01-31T00:03:40;99301.38;;;2.56;100.00
49843;BME280;55559;48.898;9.184;2023-01-31T00:06:12;99299.41;;;2.62;100.00
49843;BME280;55559;48.898;9.184;2023-01-31T00:08:41;99304.66;;;2.62;100.00
49843;BME280;55559;48.898;9.184;2023-01-31T00:11:09;99304.91;;;2.55;100.00
49843;BME280;55559;48.898;9.184;2023-01-31T00:13:38;99289.69;;;2.64;100.00
49843;BME280;55559;48.898;9.184;2023-01-31T00:16:06;99292.19;;;2.67;100.00
49843;BME280;55559;48.898;9.184;2023-01-31T00:18:34;99290.47;;;2.66;100.00
49843;BME280;55559;48.898;9.184;2023-01-31T00:21:10;99297.63;;;2.62;100.00
49843;BME280;55559;48.898;9.184;2023-01-31T00:23:38;99293.22;;;2.63;100.00
49843;BME280;55559;48.898;9.184;2023-01-31T00:26:10;99296.91;;;2.58;100.00
49843;BME280;55559;48.898;9.184;2023-01-31T00:28:40;99295.06;;;2.60;100.00
49843;BME280;55559;48.898;9.184;2023-01-31T00:31:08;99292.38;;;2.62;100.00
49843;BME280;55559;48.898;9.184;2023-01-31T00:33:38;99302.81;;;2.64;100.00
49843;BME280;55559;48.898;9.184;2023-01-31T00:36:07;99292.19;;;2.67;100.00
49843;BME280;55559;48.898;9.184;2023-01-31T00:38:35;99295.97;;;2.59;100.00
49843;BME280;55559;48.898;9.184;2023-01-31T00:41:03;99302.16;;;2.58;100.00
49843;BME280;55559;48.898;9.184;2023-01-31T00:43:32;99298.53;;;2.61;100.00
49843;BME280;55559;48.898;9.184;2023-01-31T00:46:02;99293.41;;;2.58;100.00
49843;BME280;55559;48.898;9.184;2023-01-31T00:48:30;99295.97;;;2.59;100.00
49843;BME280;55559;48.898;9.184;2023-01-31T00:50:58;99291.72;;;2.57;100.00
49843;BME280;55559;48.898;9.184;2023-01-31T00:53:25;99294.41;;;2.55;100.00
49843;BME280;55559;48.898;9.184;2023-01-31T00:55:54;99305.88;;;2.53;100.00
49843;BME280;55559;48.898;9.184;2023-01-31T00:58:23;99301.50;;;2.53;100.00
49843;BME280;55559;48.898;9.184;2023-01-31T01:00:52;99303.53;;;2.47;100.00
49843;BME280;55559;48.898;9.184;2023-01-31T01:03:21;99305.09;;;2.51;100.00
49843;BME280;55559;48.898;9.184;2023-01-31T01:05:49;99303.72;;;2.42;100.00
49843;BME280;55559;48.898;9.184;2023-01-31T01:08:17;99303.00;;;2.38;100.00
49843;BME280;55559;48.898;9.184;2023-01-31T01:10:44;99305.81;;;2.34;100.00
49843;BME280;55559;48.898;9.184;2023-01-31T01:13:12;99303.31;;;2.31;100.00
49843;BME280;55559;48.898;9.184;2023-01-31T01:15:41;99306.81;;;2.31;100.00
49843;BME280;55559;48.898;9.184;2023-01-31T01:18:08;99307.66;;;2.32;100.00
49843;BME280;55559;48.898;9.184;2023-01-31T01:20:38;99299.91;;;2.29;100.00
49843;BME280;55559;48.898;9.184;2023-01-31T01:23:06;99302.88;;;2.21;100.00
49843;BME280;55559;48.898;9.184;2023-01-31T01:25:41;99302.16;;;2.16;100.00
49843;BME280;55559;48.898;9.184;2023-01-31T01:28:09;99310.31;;;2.10;100.00
49843;BME280;55559;48.898;9.184;2023-01-31T01:30:37;99309.53;;;2.08;100.00
49843;BME280;55559;48.898;9.184;2023-01-31T01:33:05;99307.06;;;2.03;100.00
49843;BME280;55559;48.898;9.184;2023-01-31T01:35:32;99307.38;;;1.95;100.00
49843;BME280;55559;48.898;9.184;2023-01-31T01:38:01;99306.81;;;1.87;100.00
49843;BME280;55559;48.898;9.184;2023-01-31T01:40:34;99307.03;;;1.82;100.00
49843;BME280;55559;48.898;9.184;2023-01-31T01:43:02;99312.13;;;1.85;100.00
49843;BME280;55559;48.898;9.184;2023-01-31T01:45:30;99325.38;;;1.82;100.00
49843;BME280;55559;48.898;9.184;2023-01-31T01:47:59;99327.94;;;1.84;100.00
49843;BME280;55559;48.898;9.184;2023-01-31T01:50:29;99330.63;;;1.82;100.00
49843;BME280;55559;48.898;9.184;2023-01-31T01:53:06;99326.06;;;1.88;100.00
49843;BME280;55559;48.898;9.184;2023-01-31T01:55:38;99329.34;;;1.93;100.00
49843;BME280;55559;48.898;9.184;2023-01-31T01:58:13;99324.00;;;1.96;100.00
49843;BME280;55559;48.898;9.184;2023-01-31T02:00:44;99324.59;;;2.02;100.00
49843;BME280;55559;48.898;9.184;2023-01-31T02:03:12;99323.53;;;2.07;100.00
49843;BME280;55559;48.898;9.184;2023-01-31T02:05:43;99326.00;;;2.11;100.00
49843;BME280;55559;48.898;9.184;2023-01-31T02:08:16;99319.16;;;2.07;100.00
49843;BME280;55559;48.898;9.184;2023-01-31T02:10:47;99326.84;;;2.12;100.00
49843;BME280;55559;48.898;9.184;2023-01-31T02:13:17;99337.22;;;2.15;100.00
49843;BME280;55559;48.898;9.184;2023-01-31T02:15:45;99344.91;;;2.19;100.00
49843;BME280;55559;48.898;9.184;2023-01-31T02:18:13;99334.25;;;2.22;100.00
49843;BME280;55559;48.898;9.184;2023-01-31T02:21:09;99335.38;;;2.17;100.00
49843;BME280;55559;48.898;9.184;2023-01-31T02:24:18;99349.22;;;2.20;100.00
49843;BME280;55559;48.898;9.184;2023-01-31T02:27:25;99345.94;;;2.15;100.00
49843;BME280;55559;48.898;9.184;2023-01-31T02:30:43;99349.28;;;2.19;100.00
49843;BME280;55559;48.898;9.184;2023-01-31T02:33:22;99348.44;;;2.18;100.00
49843;BME280;55559;48.898;9.184;2023-01-31T02:36:01;99357.34;;;2.14;100.00
49843;BME280;55559;48.898;9.184;2023-01-31T02:38:41;99351.13;;;2.17;100.00
49843;BME280;55559;48.898;9.184;2023-01-31T02:41:17;99357.22;;;2.17;100.00
49843;BME280;55559;48.898;9.184;2023-01-31T02:43:52;99360.66;;;2.19;100.00
49843;BME280;55559;48.898;9.184;2023-01-31T02:46:45;99351.72;;;2.23;100.00
49843;BME280;55559;48.898;9.184;2023-01-31T02:49:26;99358.69;;;2.25;100.00
49843;BME280;55559;48.898;9.184;2023-01-31T02:52:15;99361.31;;;2.25;100.00
49843;BME280;55559;48.898;9.184;2023-01-31T02:54:55;99359.47;;;2.27;100.00
49843;BME280;55559;48.898;9.184;2023-01-31T02:57:44;99365.63;;;2.26;100.00
49843;BME280;55559;48.898;9.184;2023-01-31T03:00:12;99360.66;;;2.19;100.00
49843;BME280;55559;48.898;9.184;2023-01-31T03:02:41;99365.75;;;2.22;100.00
49843;BME280;55559;48.898;9.184;2023-01-31T03:05:13;99357.97;;;2.21;100.00
49843;BME280;55559;48.898;9.184;2023-01-31T03:07:44;99358.03;;;2.19;100.00
49843;BME280;55559;48.898;9.184;2023-01-31T03:10:35;99358.94;;;2.18;100.00
49843;BME280;55559;48.898;9.184;2023-01-31T03:13:15;99351.78;;;2.22;100.00
49843;BME280;55559;48.898;9.184;2023-01-31T03:15:56;99352.44;;;2.27;100.00
49843;BME280;55559;48.898;9.184;2023-01-31T03:18:50;99359.78;;;2.19;100.00
49843;BME280;55559;48.898;9.184;2023-01-31T03:21:26;99358.81;;;2.21;100.00
49843;BME280;55559;48.898;9.184;2023-01-31T03:23:56;99359.53;;;2.25;100.00
49843;BME280;55559;48.898;9.184;2023-01-31T03:26:26;99366.69;;;2.21;100.00
49843;BME280;55559;48.898;9.184;2023-01-31T03:28:56;99370.16;;;2.22;100.00
49843;BME280;55559;48.898;9.184;2023-01-31T03:31:29;99357.81;;;2.24;100.00
49843;BME280;55559;48.898;9.184;2023-01-31T03:34:02;99369.31;;;2.21;100.00
49843;BME280;55559;48.898;9.184;2023-01-31T03:36:35;99366.69;;;2.21;100.00
49843;BME280;55559;48.898;9.184;2023-01-31T03:39:31;99383.34;;;2.20;100.00
49843;BME280;55559;48.898;9.184;2023-01-31T03:42:05;99383.22;;;2.23;100.00
49843;BME280;55559;48.898;9.184;2023-01-31T03:44:39;99374.56;;;2.21;100.00
49843;BME280;55559;48.898;9.184;2023-01-31T03:47:13;99379.63;;;2.26;100.00
49843;BME280;55559;48.898;9.184;2023-01-31T03:49:44;99377.28;;;2.18;100.00
49843;BME280;55559;48.898;9.184;2023-01-31T03:52:18;99372.72;;;2.23;100.00
49843;BME280;55559;48.898;9.184;2023-01-31T03:54:53;99374.63;;;2.20;100.00
49843;BME280;55559;48.898;9.184;2023-01-31T03:57:24;99379.88;;;2.20;100.00
49843;BME280;55559;48.898;9.184;2023-01-31T03:59:57;99392.31;;;2.15;100.00
49843;BME280;55559;48.898;9.184;2023-01-31T04:02:30;99388.69;;;2.17;100.00
49843;BME280;55559;48.898;9.184;2023-01-31T04:05:04;99395.78;;;2.15;100.00
49843;BME280;55559;48.898;9.184;2023-01-31T04:07:36;99406.22;;;2.17;100.00
49843;BME280;55559;48.898;9.184;2023-01-31T04:10:10;99401.28;;;2.09;100.00
49843;BME280;55559;48.898;9.184;2023-01-31T04:12:39;99397.84;;;2.07;100.00
49843;BME280;55559;48.898;9.184;2023-01-31T04:15:07;99405.78;;;2.05;100.00
49843;BME280;55559;48.898;9.184;2023-01-31T04:17:35;99406.03;;;1.99;100.00
49843;BME280;55559;48.898;9.184;2023-01-31T04:20:02;99397.53;;;1.93;100.00
49843;BME280;55559;48.898;9.184;2023-01-31T04:22:30;99405.63;;;1.86;100.00
49843;BME280;55559;48.898;9.184;2023-01-31T04:24:59;99406.06;;;1.76;100.00
49843;BME280;55559;48.898;9.184;2023-01-31T04:27:27;99405.44;;;1.69;100.00
49843;BME280;55559;48.898;9.184;2023-01-31T04:29:54;99414.38;;;1.63;100.00
49843;BME280;55559;48.898;9.184;2023-01-31T04:32:21;99410.28;;;1.56;100.00
49843;BME280;55559;48.898;9.184;2023-01-31T04:34:49;99413.09;;;1.50;100.00
49843;BME280;55559;48.898;9.184;2023-01-31T04:37:16;99407.31;;;1.42;100.00
49843;BME280;55559;48.898;9.184;2023-01-31T04:39:44;99417.03;;;1.38;100.00
49843;BME280;55559;48.898;9.184;2023-01-31T04:42:13;99412.50;;;1.43;100.00
49843;BME280;55559;48.898;9.184;2023-01-31T04:44:40;99406.63;;;1.37;100.00
49843;BME280;55559;48.898;9.184;2023-01-31T04:47:08;99409.81;;;1.20;100.00
49843;BME280;55559;48.898;9.184;2023-01-31T04:49:35;99416.25;;;1.11;100.00
49843;BME280;55559;48.898;9.184;2023-01-31T04:52:03;99412.84;;;1.09;100.00
49843;BME280;55559;48.898;9.184;2023-01-31T04:54:30;99413.69;;;1.09;100.00
49843;BME280;55559;48.898;9.184;2023-01-31T04:56:58;99413.28;;;0.97;100.00
49843;BME280;55559;48.898;9.184;2023-01-31T04:59:27;99405.56;;;0.92;100.00
49843;BME280;55559;48.898;9.184;2023-01-31T05:01:54;99407.16;;;0.96;100.00
49843;BME280;55559;48.898;9.184;2023-01-31T05:04:22;99419.16;;;1.03;100.00
49843;BME280;55559;48.898;9.184;2023-01-31T05:06:51;99416.34;;;1.08;100.00
49843;BME280;55559;48.898;9.184;2023-01-31T05:09:18;99410.06;;;1.14;100.00
49843;BME280;55559;48.898;9.184;2023-01-31T05:11:47;99403.00;;;1.16;100.00
49843;BME280;55559;48.898;9.184;2023-01-31T05:14:15;99411.00;;;1.11;100.00
49843;BME280;55559;48.898;9.184;2023-01-31T05:16:44;99403.91;;;1.15;100.00
49843;BME280;55559;48.898;9.184;2023-01-31T05:19:12;99420.50;;;1.15;100.00
49843;BME280;55559;48.898;9.184;2023-01-31T05:21:40;99409.28;;;1.11;100.00
49843;BME280;55559;48.898;9.184;2023-01-31T05:24:23;99420.38;;;1.18;100.00
49843;BME280;55559;48.898;9.184;2023-01-31T05:26:51;99406.50;;;1.15;100.00
49843;BME280;55559;48.898;9.184;2023-01-31T05:29:24;99417.31;;;1.05;100.00
49843;BME280;55559;48.898;9.184;2023-01-31T05:31:54;99414.81;;;1.02;100.00
49843;BME280;55559;48.898;9.184;2023-01-31T05:34:22;99414.22;;;0.94;100.00
49843;BME280;55559;48.898;9.184;2023-01-31T05:36:51;99411.59;;;0.94;100.00
49843;BME280;55559;48.898;9.184;2023-01-31T05:39:21;99419.41;;;0.96;100.00
49843;BME280;55559;48.898;9.184;2023-01-31T05:41:49;99411.88;;;0.86;100.00
49843;BME280;55559;48.898;9.184;2023-01-31T05:44:17;99417.31;;;0.80;100.00
49843;BME280;55559;48.898;9.184;2023-01-31T05:46:45;99413.84;;;0.80;100.00
49843;BME280;55559;48.898;9.184;2023-01-31T05:49:14;99416.56;;;0.77;100.00
49843;BME280;55559;48.898;9.184;2023-01-31T05:51:41;99421.28;;;0.65;100.00
49843;BME280;55559;48.898;9.184;2023-01-31T05:54:10;99422.03;;;0.69;100.00
49843;BME280;55559;48.898;9.184;2023-01-31T05:56:37;99416.97;;;0.64;100.00
49843;BME280;55559;48.898;9.184;2023-01-31T05:59:05;99417.19;;;0.58;100.00
49843;BME280;55559;48.898;9.184;2023-01-31T06:01:32;99416.28;;;0.59;100.00
49843;BME280;55559;48.898;9.184;2023-01-31T06:04:00;99416.47;;;0.53;100.00
49843;BME280;55559;48.898;9.184;2023-01-31T06:06:29;99419.19;;;0.50;100.00
49843;BME280;55559;48.898;9.184;2023-01-31T06:08:56;99422.88;;;0.44;100.00
49843;BME280;55559;48.898;9.184;2023-01-31T06:11:24;99421.22;;;0.40;100.00
49843;BME280;55559;48.898;9.184;2023-01-31T06:13:51;99421.50;;;0.32;100.00
49843;BME280;55559;48.898;9.184;2023-01-31T06:16:22;99423.50;;;0.24;100.00
49843;BME280;55559;48.898;9.184;2023-01-31T06:18:49;99422.69;;;0.22;100.00
49843;BME280;55559;48.898;9.184;2023-01-31T06:21:17;99426.34;;;0.16;100.00
49843;BME280;55559;48.898;9.184;2023-01-31T06:23:46;99428.91;;;0.18;100.00
49843;BME280;55559;48.898;9.184;2023-01-31T06:26:13;99429.16;;;0.10;100.00
49843;BME280;55559;48.898;9.184;2023-01-31T06:28:41;99430.91;;;0.10;100.00
49843;BME280;55559;48.898;9.184;2023-01-31T06:31:09;99427.56;;;0.05;100.00
49843;BME280;55559;48.898;9.184;2023-01-31T06:33:37;99435.41;;;0.05;100.00
49843;BME280;55559;48.898;9.184;2023-01-31T06:36:05;99440.00;;;-0.04;100.00
49843;BME280;55559;48.898;9.184;2023-01-31T06:38:32;99434.03;;;-0.07;100.00
49843;BME280;55559;48.898;9.184;2023-01-31T06:41:01;99441.06;;;-0.09;100.00
49843;BME280;55559;48.898;9.184;2023-01-31T06:43:29;99442.00;;;-0.12;100.00
49843;BME280;55559;48.898;9.184;2023-01-31T06:45:56;99448.09;;;-0.11;100.00
49843;BME280;55559;48.898;9.184;2023-01-31T06:48:24;99447.22;;;-0.12;100.00
49843;BME280;55559;48.898;9.184;2023-01-31T06:50:51;99448.94;;;-0.11;100.00
49843;BME280;55559;48.898;9.184;2023-01-31T06:53:19;99443.59;;;-0.06;100.00
49843;BME280;55559;48.898;9.184;2023-01-31T06:55:47;99447.78;;;-0.01;100.00
49843;BME280;55559;48.898;9.184;2023-01-31T06:58:16;99446.09;;;-0.02;100.00
49843;BME280;55559;48.898;9.184;2023-01-31T07:00:44;99443.47;;;-0.02;100.00
49843;BME280;55559;48.898;9.184;2023-01-31T07:03:11;99442.28;;;0.09;100.00
49843;BME280;55559;48.898;9.184;2023-01-31T07:05:39;99435.16;;;0.14;100.00
49843;BME280;55559;48.898;9.184;2023-01-31T07:08:07;99430.81;;;0.13;100.00
49843;BME280;55559;48.898;9.184;2023-01-31T07:10:35;99429.88;;;0.15;100.00
49843;BME280;55559;48.898;9.184;2023-01-31T07:13:02;99429.66;;;0.22;100.00
49843;BME280;55559;48.898;9.184;2023-01-31T07:15:31;99433.03;;;0.25;100.00
49843;BME280;55559;48.898;9.184;2023-01-31T07:17:59;99432.19;;;0.25;100.00
49843;BME280;55559;48.898;9.184;2023-01-31T07:20:29;99438.25;;;0.25;100.00
49843;BME280;55559;48.898;9.184;2023-01-31T07:22:57;99441.59;;;0.30;100.00
49843;BME280;55559;48.898;9.184;2023-01-31T07:25:25;99435.25;;;0.39;100.00
49843;BME280;55559;48.898;9.184;2023-01-31T07:27:53;99444.66;;;0.45;100.00
49843;BME280;55559;48.898;9.184;2023-01-31T07:30:21;99441.00;;;0.49;100.00
49843;BME280;55559;48.898;9.184;2023-01-31T07:32:49;99441.72;;;0.54;100.00
49843;BME280;55559;48.898;9.184;2023-01-31T07:35:18;99445.06;;;0.59;100.00
49843;BME280;55559;48.898;9.184;2023-01-31T07:37:45;99439.47;;;0.70;100.00
49843;BME280;55559;48.898;9.184;2023-01-31T07:40:14;99451.50;;;0.76;100.00
49843;BME280;55559;48.898;9.184;2023-01-31T07:42:41;99446.97;;;0.81;100.00
49843;BME280;55559;48.898;9.184;2023-01-31T07:45:11;99454.75;;;0.82;100.00
49843;BME280;55559;48.898;9.184;2023-01-31T07:47:38;99454.72;;;0.84;100.00
49843;BME280;55559;48.898;9.184;2023-01-31T07:50:10;99451.94;;;0.88;100.00
49843;BME280;55559;48.898;9.184;2023-01-31T07:52:38;99451.06;;;0.89;100.00
49843;BME280;55559;48.898;9.184;2023-01-31T07:55:06;99451.06;;;0.89;100.00
49843;BME280;55559;48.898;9.184;2023-01-31T07:57:34;99464.06;;;0.91;100.00
49843;BME280;55559;48.898;9.184;2023-01-31T08:00:01;99454.38;;;0.95;100.00
49843;BME280;55559;48.898;9.184;2023-01-31T08:02:49;99473.47;;;0.98;100.00
49843;BME280;55559;48.898;9.184;2023-01-31T08:05:35;99480.25;;;1.04;100.00
49843;BME280;55559;48.898;9.184;2023-01-31T08:08:03;99473.13;;;1.07;100.00
49843;BME280;55559;48.898;9.184;2023-01-31T08:10:36;99477.25;;;1.15;100.00
49843;BME280;55559;48.898;9.184;2023-01-31T08:13:03;99475.97;;;1.26;100.00
49843;BME280;55559;48.898;9.184;2023-01-31T08:15:31;99475.41;;;1.43;100.00
49843;BME280;55559;48.898;9.184;2023-01-31T08:17:59;99479.34;;;1.55;100.00
49843;BME280;55559;48.898;9.184;2023-01-31T08:20:27;99474.81;;;1.60;100.00
49843;BME280;55559;48.898;9.184;2023-01-31T08:22:56;99470.41;;;1.61;100.00
49843;BME280;55559;48.898;9.184;2023-01-31T08:25:25;99462.19;;;1.70;100.00
49843;BME280;55559;48.898;9.184;2023-01-31T08:27:53;99463.50;;;1.82;100.00
49843;BME280;55559;48.898;9.184;2023-01-31T08:30:21;99464.94;;;1.91;100.00
49843;BME280;55559;48.898;9.184;2023-01-31T08:32:48;99456.00;;;1.96;100.00
49843;BME280;55559;48.898;9.184;2023-01-31T08:35:16;99444.13;;;2.10;100.00
49843;BME280;55559;48.898;9.184;2023-01-31T08:37:43;99446.63;;;2.13;100.00
49843;BME280;55559;48.898;9.184;2023-01-31T08:40:13;99445.97;;;2.30;100.00
49843;BME280;55559;48.898;9.184;2023-01-31T08:42:40;99451.84;;;2.36;100.00
49843;BME280;55559;48.898;9.184;2023-01-31T08:45:08;99444.06;;;2.33;100.00
49843;BME280;55559;48.898;9.184;2023-01-31T08:47:36;99447.66;;;2.31;100.00
49843;BME280;55559;48.898;9.184;2023-01-31T08:50:05;99442.63;;;2.26;100.00
49843;BME280;55559;48.898;9.184;2023-01-31T08:52:33;99435.75;;;2.22;100.00
49843;BME280;55559;48.898;9.184;2023-01-31T08:55:01;99437.41;;;2.25;100.00
49843;BME280;55559;48.898;9.184;2023-01-31T08:57:32;99439.13;;;2.26;100.00
49843;BME280;55559;48.898;9.184;2023-01-31T08:59:59;99436.25;;;2.32;100.00
49843;BME280;55559;48.898;9.184;2023-01-31T09:02:27;99431.78;;;2.34;100.00
49843;BME280;55559;48.898;9.184;2023-01-31T09:04:54;99438.50;;;2.41;100.00
49843;BME280;55559;48.898;9.184;2023-01-31T09:07:22;99437.31;;;2.50;100.00
49843;BME280;55559;48.898;9.184;2023-01-31T09:09:50;99434.00;;;2.67;100.00
49843;BME280;55559;48.898;9.184;2023-01-31T09:12:20;99439.50;;;2.81;100.00
49843;BME280;55559;48.898;9.184;2023-01-31T09:14:51;99444.34;;;2.92;100.00
49843;BME280;55559;48.898;9.184;2023-01-31T09:17:18;99440.59;;;3.18;100.00
49843;BME280;55559;48.898;9.184;2023-01-31T09:19:46;99436.56;;;3.30;100.00
49843;BME280;55559;48.898;9.184;2023-01-31T09:22:14;99435.63;;;3.51;100.00
49843;BME280;55559;48.898;9.184;2023-01-31T09:24:41;99427.38;;;3.59;100.00
49843;BME280;55559;48.898;9.184;2023-01-31T09:27:09;99418.44;;;3.63;100.00
49843;BME280;55559;48.898;9.184;2023-01-31T09:29:36;99423.78;;;3.81;100.00
49843;BME280;55559;48.898;9.184;2023-01-31T09:32:05;99413.25;;;3.81;100.00
49843;BME280;55559;48.898;9.184;2023-01-31T09:34:33;99418.13;;;3.90;100.00
49843;BME280;55559;48.898;9.184;2023-01-31T09:37:00;99412.78;;;3.91;100.00
49843;BME280;55559;48.898;9.184;2023-01-31T09:39:28;99422.16;;;3.78;100.00
49843;BME280;55559;48.898;9.184;2023-01-31T09:41:57;99423.84;;;3.60;100.00
49843;BME280;55559;48.898;9.184;2023-01-31T09:44:30;99430.69;;;3.44;100.00
49843;BME280;55559;48.898;9.184;2023-01-31T09:47:07;99423.75;;;3.43;100.00
49843;BME280;55559;48.898;9.184;2023-01-31T09:49:42;99420.13;;;3.45;100.00
49843;BME280;55559;48.898;9.184;2023-01-31T09:52:12;99410.75;;;3.59;100.00
49843;BME280;55559;48.898;9.184;2023-01-31T09:54:41;99412.22;;;3.85;100.00
49843;BME280;55559;48.898;9.184;2023-01-31T09:57:19;99418.94;;;4.09;100.00
49843;BME280;55559;48.898;9.184;2023-01-31T09:59:54;99431.28;;;3.90;100.00
49843;BME280;55559;48.898;9.184;2023-01-31T10:02:42;99432.59;;;4.18;100.00
49843;BME280;55559;48.898;9.184;2023-01-31T10:05:26;99437.44;;;4.08;100.00
49843;BME280;55559;48.898;9.184;2023-01-31T10:08:05;99425.19;;;4.26;100.00
49843;BME280;55559;48.898;9.184;2023-01-31T10:10:38;99432.97;;;4.29;100.00
49843;BME280;55559;48.898;9.184;2023-01-31T10:13:22;99423.34;;;4.28;100.00
49843;BME280;55559;48.898;9.184;2023-01-31T10:15:57;99427.66;;;4.48;100.00
49843;BME280;55559;48.898;9.184;2023-01-31T10:18:32;99424.09;;;4.49;100.00
49843;BME280;55559;48.898;9.184;2023-01-31T10:21:04;99425.00;;;4.31;100.00
49843;BME280;55559;48.898;9.184;2023-01-31T10:23:38;99425.22;;;4.07;100.00
49843;BME280;55559;48.898;9.184;2023-01-31T10:26:09;99415.38;;;4.29;100.00
49843;BME280;55559;48.898;9.184;2023-01-31T10:28:43;99422.19;;;4.70;100.00
49843;BME280;55559;48.898;9.184;2023-01-31T10:31:24;99414.75;;;4.78;100.00
49843;BME280;55559;48.898;9.184;2023-01-31T10:33:59;99413.50;;;4.85;100.00
49843;BME280;55559;48.898;9.184;2023-01-31T10:36:33;99418.94;;;5.00;100.00
49843;BME280;55559;48.898;9.184;2023-01-31T10:39:04;99422.56;;;4.97;100.00
49843;BME280;55559;48.898;9.184;2023-01-31T10:41:40;99418.66;;;5.06;100.00
49843;BME280;55559;48.898;9.184;2023-01-31T10:44:17;99417.16;;;5.00;100.00
49843;BME280;55559;48.898;9.184;2023-01-31T10:46:47;99426.31;;;4.93;100.00
49843;BME280;55559;48.898;9.184;2023-01-31T10:49:17;99430.34;;;5.00;100.00
49843;BME280;55559;48.898;9.184;2023-01-31T10:52:00;99429.72;;;4.60;100.00
49843;BME280;55559;48.898;9.184;2023-01-31T10:54:40;99423.44;;;4.80;100.00
49843;BME280;55559;48.898;9.184;2023-01-31T10:57:08;99422.09;;;4.72;100.00
49843;BME280;55559;48.898;9.184;2023-01-31T10:59:37;99423.09;;;4.52;100.00
49843;BME280;55559;48.898;9.184;2023-01-31T11:02:17;99414.19;;;4.54;100.00
49843;BME280;55559;48.898;9.184;2023-01-31T11:04:48;99405.44;;;4.54;100.00
49843;BME280;55559;48.898;9.184;2023-01-31T11:07:16;99408.56;;;4.25;100.00
49843;BME280;55559;48.898;9.184;2023-01-31T11:09:49;99403.44;;;4.22;100.00
49843;BME280;55559;48.898;9.184;2023-01-31T11:12:20;99401.31;;;4.12;100.00
49843;BME280;55559;48.898;9.184;2023-01-31T11:15:04;99385.25;;;3.99;100.00
49843;BME280;55559;48.898;9.184;2023-01-31T11:17:35;99386.19;;;4.34;100.00
49843;BME280;55559;48.898;9.184;2023-01-31T11:20:05;99380.59;;;4.94;100.00
49843;BME280;55559;48.898;9.184;2023-01-31T11:22:34;99383.22;;;4.77;100.00
49843;BME280;55559;48.898;9.184;2023-01-31T11:25:04;99384.09;;;4.77;100.00
49843;BME280;55559;48.898;9.184;2023-01-31T11:27:36;99354.50;;;5.06;100.00
49843;BME280;55559;48.898;9.184;2023-01-31T11:30:06;99342.53;;;5.16;100.00
49843;BME280;55559;48.898;9.184;2023-01-31T11:32:44;99335.97;;;5.25;100.00
49843;BME280;55559;48.898;9.184;2023-01-31T11:35:24;99335.53;;;5.32;100.00
49843;BME280;55559;48.898;9.184;2023-01-31T11:37:54;99331.66;;;5.06;100.00
49843;BME280;55559;48.898;9.184;2023-01-31T11:40:27;99318.88;;;5.14;100.00
49843;BME280;55559;48.898;9.184;2023-01-31T11:42:56;99339.19;;;4.96;100.00
49843;BME280;55559;48.898;9.184;2023-01-31T11:45:26;99340.56;;;5.37;100.00
49843;BME280;55559;48.898;9.184;2023-01-31T11:47:56;99339.50;;;5.24;100.00
49843;BME280;55559;48.898;9.184;2023-01-31T11:50:32;99339.97;;;5.32;100.00
49843;BME280;55559;48.898;9.184;2023-01-31T11:53:02;99344.78;;;5.24;100.00
49843;BME280;55559;48.898;9.184;2023-01-31T11:55:35;99347.75;;;5.17;100.00
49843;BME280;55559;48.898;9.184;2023-01-31T11:58:04;99329.50;;;5.46;100.00
49843;BME280;55559;48.898;9.184;2023-01-31T12:00:35;99329.34;;;5.49;100.00
49843;BME280;55559;48.898;9.184;2023-01-31T12:03:05;99334.84;;;5.45;100.00
49843;BME280;55559;48.898;9.184;2023-01-31T12:05:40;99324.69;;;5.21;100.00
49843;BME280;55559;48.898;9.184;2023-01-31T12:08:24;99311.03;;;5.46;100.00
49843;BME280;55559;48.898;9.184;2023-01-31T12:10:53;99312.50;;;5.68;100.00
49843;BME280;55559;48.898;9.184;2023-01-31T12:13:21;99311.34;;;5.24;100.00
49843;BME280;55559;48.898;9.184;2023-01-31T12:15:52;99308.06;;;5.52;100.00
49843;BME280;55559;48.898;9.184;2023-01-31T12:18:45;99308.59;;;5.59;100.00
49843;BME280;55559;48.898;9.184;2023-01-31T12:21:33;99284.50;;;5.33;100.00
49843;BME280;55559;48.898;9.184;2023-01-31T12:24:07;99288.34;;;5.44;100.00
49843;BME280;55559;48.898;9.184;2023-01-31T12:26:44;99268.91;;;5.29;100.00
49843;BME280;55559;48.898;9.184;2023-01-31T12:29:27;99281.50;;;5.39;100.00
49843;BME280;55559;48.898;9.184;2023-01-31T12:32:16;99272.59;;;5.26;100.00
49843;BME280;55559;48.898;9.184;2023-01-31T12:35:06;99278.34;;;5.33;100.00
49843;BME280;55559;48.898;9.184;2023-01-31T12:37:48;99264.84;;;5.39;100.00
49843;BME280;55559;48.898;9.184;2023-01-31T12:40:36;99255.72;;;5.45;100.00
49843;BME280;55559;48.898;9.184;2023-01-31T12:43:22;99256.66;;;5.28;100.00
49843;BME280;55559;48.898;9.184;2023-01-31T12:46:07;99259.19;;;5.13;100.00
49843;BME280;55559;48.898;9.184;2023-01-31T12:48:54;99256.44;;;4.99;100.00
49843;BME280;55559;48.898;9.184;2023-01-31T12:51:36;99263.03;;;5.08;100.00
49843;BME280;55559;48.898;9.184;2023-01-31T12:54:20;99252.03;;;4.99;100.00
49843;BME280;55559;48.898;9.184;2023-01-31T12:56:58;99241.66;;;4.96;100.00
49843;BME280;55559;48.898;9.184;2023-01-31T12:59:38;99236.38;;;4.96;100.00
49843;BME280;55559;48.898;9.184;2023-01-31T13:02:16;99229.97;;;5.18;100.00
49843;BME280;55559;48.898;9.184;2023-01-31T13:04:52;99225.63;;;5.17;100.00
49843;BME280;55559;48.898;9.184;2023-01-31T13:07:28;99224.59;;;5.35;100.00
49843;BME280;55559;48.898;9.184;2023-01-31T13:10:03;99237.78;;;5.19;100.00
49843;BME280;55559;48.898;9.184;2023-01-31T13:12:32;99226.00;;;5.09;100.00
49843;BME280;55559;48.898;9.184;2023-01-31T13:15:04;99223.97;;;5.14;100.00
49843;BME280;55559;48.898;9.184;2023-01-31T13:17:36;99203.59;;;5.34;100.00
49843;BME280;55559;48.898;9.184;2023-01-31T13:20:20;99202.28;;;5.41;100.00
49843;BME280;55559;48.898;9.184;2023-01-31T13:22:52;99202.06;;;5.30;100.00
49843;BME280;55559;48.898;9.184;2023-01-31T13:25:25;99213.34;;;5.16;100.00